WetterOnline ( https://www.wetteronline.ch )

Wetter aktuell Frankfurt am Main

Aktuelles Wetter: Offenbach (119m)

6-stündlich | Neueste Meldungen
Ortszeit Temperatur Wetter
Fr, 03.12. 1:00 0.2° C wolkenlos
Do, 02.12. 19:00 3.0° C bedeckt
Do, 02.12. 13:00 4.5° C bewölkt
Do, 02.12. 7:00 3.6° C Sprühregen
Do, 02.12. 1:00 5.6° C Regen
Mi, 01.12. 19:00 7.0° C leicht bewölkt
Mi, 01.12. 13:00 7.6° C bedeckt
Mi, 01.12. 7:00 5.8° C Sprühregen
Ortszeit Temperatur Wetter
Fr, 03.12. 2:30 -0.6° C bewölkt
Fr, 03.12. 2:20 -0.6° C bewölkt
Fr, 03.12. 2:10 -0.1° C bewölkt
Fr, 03.12. 2:00 0.0° C bewölkt
Fr, 03.12. 1:50 0.0° C bewölkt
Fr, 03.12. 1:40 0.0° C wolkig
Fr, 03.12. 1:30 0.0° C leicht bewölkt
Fr, 03.12. 1:00 0.2° C wolkenlos
Fr, 03.12. 0:30 0.6° C fast wolkenlos
Fr, 03.12. 0:00 1.5° C leicht bewölkt
Do, 02.12. 23:30 2.6° C bedeckt
Ortszeit Relative Feuchte Sichtweite
Fr, 03.12. 1:00 88% 29 km
Do, 02.12. 19:00 81% 40 km
Do, 02.12. 13:00 82% 50 km
Do, 02.12. 7:00 92% 40 km
Do, 02.12. 1:00 85% 30 km
Mi, 01.12. 19:00 84% 60 km
Mi, 01.12. 13:00 83% >70 km
Mi, 01.12. 7:00 86% 8 km
Ortszeit Relative Feuchte Sichtweite
Fr, 03.12. 2:30 92% 20 km
Fr, 03.12. 2:20 92% -
Fr, 03.12. 2:10 90% -
Fr, 03.12. 2:00 90% 27 km
Fr, 03.12. 1:50 90% -
Fr, 03.12. 1:40 90% -
Fr, 03.12. 1:30 88% 29 km
Fr, 03.12. 1:00 88% 29 km
Fr, 03.12. 0:30 87% 30 km
Fr, 03.12. 0:00 83% 40 km
Do, 02.12. 23:30 78% 50 km
Ortszeit Niederschlagsmenge Niederschlagsart
Fr, 03.12. 1:00 0.0 l/m2 in 6 Std. -
Do, 02.12. 19:00 0.8 l/m2 in 12 Std. Regen
Do, 02.12. 13:00 0.7 l/m2 in 6 Std. Regen
Do, 02.12. 7:00 2 l/m2 in 12 Std. Regen
Do, 02.12. 1:00 0.1 l/m2 in 6 Std. Regen
Mi, 01.12. 19:00 0.1 l/m2 in 12 Std. Regen
Mi, 01.12. 13:00 0.1 l/m2 in 6 Std. Regen
Mi, 01.12. 7:00 0.4 l/m2 in 12 Std. Regen
Ortszeit Niederschlagsmenge Niederschlagsart
Fr, 03.12. 2:30 0.0 l/m2 in 1 Std. -
Fr, 03.12. 2:20 keine Meldung -
Fr, 03.12. 2:10 keine Meldung -
Fr, 03.12. 2:00 0.0 l/m2 in 1 Std. -
Fr, 03.12. 1:50 keine Meldung -
Fr, 03.12. 1:40 keine Meldung -
Fr, 03.12. 1:30 0.0 l/m2 in 1 Std. -
Fr, 03.12. 1:00 0.0 l/m2 in 1 Std. -
Fr, 03.12. 0:30 0.0 l/m2 in 1 Std. -
Fr, 03.12. 0:00 0.0 l/m2 in 1 Std. -
Do, 02.12. 23:30 0.0 l/m2 in 1 Std. -
Ortszeit Stärke Spitze Richtung
km/h Bft. km/h Grad Sektor
Fr, 03.12. 1:00 7 2 18 240° SW
Do, 02.12. 19:00 6 1 30 240° SW
Do, 02.12. 13:00 9 2 22 260° W
Do, 02.12. 7:00 9 2 20 230° SW
Do, 02.12. 1:00 11 2 41 240° SW
Mi, 01.12. 19:00 15 3 50 240° SW
Mi, 01.12. 13:00 19 3 54 210° SW
Mi, 01.12. 7:00 18 3 50 200° S
Ortszeit Stärke Spitze Richtung
km/h Bft. km/h Grad Sektor
Fr, 03.12. 2:30 4 1 11 210° SW
Fr, 03.12. 2:20 4 1 - 210° SW
Fr, 03.12. 2:10 4 1 - 260° W
Fr, 03.12. 2:00 6 1 11 300° NW
Fr, 03.12. 1:50 6 1 - 300° NW
Fr, 03.12. 1:40 4 1 - 270° W
Fr, 03.12. 1:30 7 2 11 230° SW
Fr, 03.12. 1:00 7 2 11 240° SW
Fr, 03.12. 0:30 6 1 11 240° SW
Fr, 03.12. 0:00 4 1 14 230° SW
Do, 02.12. 23:30 4 1 14 290° W
Ortszeit Untergrenze Bedeckung Gattung
total tief tief mittel hoch
Fr, 03.12. 1:00 - 0/8 0/8 - - -
Do, 02.12. 19:00 810 m 8/8 8/8 - - -
Do, 02.12. 13:00 600 m 8/8 6/8 - - -
Do, 02.12. 7:00 1200 m 8/8 8/8 - - -
Do, 02.12. 1:00 600 m 7/8 8/8 - - -
Mi, 01.12. 19:00 1140 m 4/8 2/8 - - -
Mi, 01.12. 13:00 510 m 8/8 8/8 - - -
Mi, 01.12. 7:00 210 m 8/8 8/8 - - -
Ortszeit Bedeckungsgrad in Achtel und Wolkenuntergrenze
Fr, 03.12. 2:30 7(1170m)
Fr, 03.12. 2:20 7(1170m)
Fr, 03.12. 2:10 5(1050m) 7(1260m)
Fr, 03.12. 2:00 1(1020m) 7(1260m)
Fr, 03.12. 1:50 1(1020m) 7(1260m)
Fr, 03.12. 1:40 5(1260m) 5(1500m)
Fr, 03.12. 1:30 1(1500m) 3(1500m) 3(1500m)
Fr, 03.12. 1:00 keine Wolken
Fr, 03.12. 0:30 1(1350m)
Fr, 03.12. 0:00 4(1260m)
Do, 02.12. 23:30 6(1290m) 8(1500m)
Ortszeit Luftdruck NN (hPa) Tendenz (hPa in 3 Std.)
Fr, 03.12. 1:00 1012 + 2,6
Do, 02.12. 19:00 1006 + 3,2
Do, 02.12. 13:00 1001 + 0,5
Do, 02.12. 7:00 999 0,0
Do, 02.12. 1:00 999 + 1,1
Mi, 01.12. 19:00 995 + 1,3
Mi, 01.12. 13:00 996 - 3,4
Mi, 01.12. 7:00 1003 - 3,0
Ortszeit Luftdruck NN (hPa) Tendenz (hPa in 3 Std.)
Fr, 03.12. 2:30 1013 + 2,2
Fr, 03.12. 2:20 1013 keine Meldung
Fr, 03.12. 2:10 1013 keine Meldung
Fr, 03.12. 2:00 1012 + 2,5
Fr, 03.12. 1:50 1012 keine Meldung
Fr, 03.12. 1:40 1012 keine Meldung
Fr, 03.12. 1:30 1012 + 2,6
Fr, 03.12. 1:00 1012 + 2,6
Fr, 03.12. 0:30 1011 + 2,4
Fr, 03.12. 0:00 1011 + 2,7
Do, 02.12. 23:30 1010 + 2,6
Ortszeit Schneehöhe (cm)
Fr, 03.12. 1:00 0
Do, 02.12. 19:00 0
Do, 02.12. 13:00 0
Do, 02.12. 7:00 0
Do, 02.12. 1:00 0
Mi, 01.12. 19:00 0
Mi, 01.12. 13:00 0
Mi, 01.12. 7:00 0
Ortszeit Schneehöhe (cm)
Fr, 03.12. 2:30 0
Fr, 03.12. 2:20 0
Fr, 03.12. 2:10 0
Fr, 03.12. 2:00 0
Fr, 03.12. 1:50 0
Fr, 03.12. 1:40 0
Fr, 03.12. 1:30 0
Fr, 03.12. 1:00 0
Fr, 03.12. 0:30 0
Fr, 03.12. 0:00 0
Do, 02.12. 23:30 0
Link zu dieser Seite / Seite empfehlen

Das Wetter in ...